createdAt,value
2019-03-22T00:01:05.099Z,72.30
2019-03-22T00:03:31.019Z,71.90
2019-03-22T00:05:59.431Z,71.90
2019-03-22T00:08:31.335Z,71.90
2019-03-22T00:10:59.588Z,71.80
2019-03-22T00:13:27.846Z,72.10
2019-03-22T00:15:58.547Z,72.20
2019-03-22T00:18:26.984Z,72.10
2019-03-22T00:20:55.234Z,72.50
2019-03-22T00:23:23.616Z,72.50
2019-03-22T00:25:51.939Z,72.50
2019-03-22T00:28:22.656Z,72.40
2019-03-22T00:30:51.037Z,72.70
2019-03-22T00:33:19.476Z,73.00
2019-03-22T00:35:47.799Z,73.10
2019-03-22T00:38:16.233Z,73.20
2019-03-22T00:40:44.624Z,73.10
2019-03-22T00:43:13.109Z,73.00
2019-03-22T00:45:41.560Z,73.00
2019-03-22T00:48:09.886Z,73.30
2019-03-22T00:50:40.017Z,73.50
2019-03-22T00:53:08.455Z,73.70
2019-03-22T00:55:39.120Z,73.80
2019-03-22T00:58:07.583Z,73.80
2019-03-22T01:00:36.025Z,73.60
2019-03-22T01:03:04.550Z,73.90
2019-03-22T01:05:34.232Z,73.90
2019-03-22T01:08:06.502Z,74.20
2019-03-22T01:10:35.127Z,74.30
2019-03-22T01:13:05.243Z,74.40
2019-03-22T01:15:33.621Z,74.60
2019-03-22T01:18:03.785Z,74.60
2019-03-22T01:20:32.066Z,74.60
2019-03-22T01:23:01.557Z,74.70
2019-03-22T01:25:29.923Z,74.40
2019-03-22T01:27:58.187Z,74.40
2019-03-22T01:30:27.617Z,74.50
2019-03-22T01:32:56.030Z,75.00
2019-03-22T01:35:24.295Z,75.00
2019-03-22T01:37:52.652Z,75.10
2019-03-22T01:40:21.112Z,75.10
2019-03-22T01:42:49.487Z,75.30
2019-03-22T01:45:18.541Z,75.30
2019-03-22T01:47:47.100Z,75.00
2019-03-22T01:50:15.477Z,75.10
2019-03-22T01:52:43.774Z,74.90
2019-03-22T01:55:15.078Z,75.00
2019-03-22T01:57:52.552Z,75.30
2019-03-22T02:00:14.206Z,75.40
2019-03-22T02:02:42.698Z,75.40
2019-03-22T02:05:12.185Z,75.60
2019-03-22T02:07:40.601Z,75.30
2019-03-22T02:10:09.214Z,75.80
2019-03-22T02:12:38.661Z,76.30
2019-03-22T02:15:10.159Z,77.50
2019-03-22T02:17:38.455Z,78.00
2019-03-22T02:20:07.555Z,78.00
2019-03-22T02:22:35.925Z,78.40
2019-03-22T02:25:04.784Z,78.30
2019-03-22T02:27:33.388Z,78.10
2019-03-22T02:30:02.035Z,78.10
2019-03-22T02:32:30.320Z,77.90
2019-03-22T02:34:58.527Z,78.10
2019-03-22T02:37:29.432Z,78.30
2019-03-22T02:39:58.209Z,78.40
2019-03-22T02:42:27.595Z,78.70
2019-03-22T02:44:55.909Z,78.50
2019-03-22T02:47:24.332Z,79.60
2019-03-22T02:49:54.488Z,80.20
2019-03-22T02:52:22.845Z,80.10
2019-03-22T02:54:53.947Z,80.90
2019-03-22T02:57:24.708Z,81.80
2019-03-22T02:59:53.123Z,82.80
2019-03-22T03:02:21.428Z,84.40
2019-03-22T03:04:51.940Z,84.30
2019-03-22T03:07:22.429Z,84.70
2019-03-22T03:09:55.037Z,85.40
2019-03-22T03:12:23.390Z,84.70
2019-03-22T03:14:52.512Z,84.60
2019-03-22T03:17:21.061Z,84.80
2019-03-22T03:19:49.437Z,84.90
2019-03-22T03:22:17.729Z,84.30
2019-03-22T03:24:46.075Z,84.00
2019-03-22T03:27:14.580Z,83.60
2019-03-22T03:29:48.623Z,83.10
2019-03-22T03:32:16.873Z,82.20
2019-03-22T03:34:45.138Z,82.10
2019-03-22T03:37:13.426Z,81.80
2019-03-22T03:39:44.153Z,81.30
2019-03-22T03:42:12.368Z,81.20
2019-03-22T03:44:41.682Z,80.90
2019-03-22T03:47:10.801Z,80.60
2019-03-22T03:49:40.007Z,80.60
2019-03-22T03:52:08.298Z,80.10
2019-03-22T03:54:36.571Z,80.30
2019-03-22T03:57:05.069Z,80.10
2019-03-22T03:59:33.426Z,80.50
2019-03-22T04:02:01.662Z,80.30
2019-03-22T04:04:29.930Z,80.30
2019-03-22T04:07:01.190Z,80.70
2019-03-22T04:09:29.513Z,80.50
2019-03-22T04:11:57.752Z,81.70
2019-03-22T04:14:26.087Z,82.00
2019-03-22T04:16:54.614Z,82.50
2019-03-22T04:19:23.858Z,83.30
2019-03-22T04:21:52.231Z,83.60
2019-03-22T04:24:20.848Z,83.40
2019-03-22T04:26:49.192Z,83.40
2019-03-22T04:29:17.585Z,83.30
2019-03-22T04:31:45.901Z,83.20
2019-03-22T04:34:15.743Z,83.30
2019-03-22T04:36:44.238Z,83.40
2019-03-22T04:39:12.564Z,83.50
2019-03-22T04:41:40.786Z,83.50
2019-03-22T04:44:09.314Z,83.50
2019-03-22T04:46:40.919Z,83.20
2019-03-22T04:49:10.611Z,82.70
2019-03-22T04:51:39.611Z,82.90
2019-03-22T04:54:08.885Z,83.00
2019-03-22T04:56:38.355Z,83.00
2019-03-22T04:59:18.931Z,83.20
2019-03-22T05:01:44.184Z,83.60
2019-03-22T05:04:13.859Z,82.90
2019-03-22T05:06:42.958Z,82.90
2019-03-22T05:09:13.991Z,83.10
2019-03-22T05:11:43.568Z,83.40
2019-03-22T05:14:14.198Z,84.00
2019-03-22T05:16:45.656Z,84.90
2019-03-22T05:19:16.392Z,86.60
2019-03-22T05:21:45.645Z,87.40
2019-03-22T05:24:15.123Z,88.70
2019-03-22T05:26:44.092Z,89.40
2019-03-22T05:29:13.737Z,90.00
2019-03-22T05:31:59.598Z,90.30
2019-03-22T05:34:28.062Z,90.50
2019-03-22T05:36:59.095Z,90.80
2019-03-22T05:39:27.448Z,90.90
2019-03-22T05:41:55.791Z,91.20
2019-03-22T05:44:25.100Z,91.30
2019-03-22T05:46:54.653Z,91.40
2019-03-22T05:49:22.945Z,91.40
2019-03-22T05:51:51.458Z,91.40
2019-03-22T05:54:19.756Z,91.40
2019-03-22T05:56:48.656Z,91.40
2019-03-22T05:59:21.337Z,91.20
2019-03-22T06:01:49.912Z,91.30
2019-03-22T06:04:18.479Z,91.10
2019-03-22T06:06:48.777Z,91.10
2019-03-22T06:09:17.653Z,90.80
2019-03-22T06:11:59.073Z,90.60
2019-03-22T06:14:27.796Z,90.20
2019-03-22T06:17:01.613Z,89.60
2019-03-22T06:19:30.366Z,89.10
2019-03-22T06:21:59.397Z,88.50
2019-03-22T06:24:28.263Z,87.60
2019-03-22T06:26:56.717Z,86.40
2019-03-22T06:29:25.123Z,86.90
2019-03-22T06:31:53.590Z,87.30
2019-03-22T06:34:22.121Z,87.30
2019-03-22T06:36:52.030Z,87.10
2019-03-22T06:39:20.933Z,87.10
2019-03-22T06:41:49.500Z,87.20
2019-03-22T06:44:18.031Z,87.40
2019-03-22T06:46:46.542Z,86.80
2019-03-22T06:49:16.694Z,85.40
2019-03-22T06:51:49.451Z,85.80
2019-03-22T06:54:30.963Z,84.80
2019-03-22T06:56:56.744Z,84.20
2019-03-22T06:59:25.506Z,84.20
2019-03-22T07:01:55.732Z,84.20
2019-03-22T07:04:24.552Z,84.10
2019-03-22T07:06:53.768Z,83.80
2019-03-22T07:09:24.021Z,82.30
2019-03-22T07:14:48.778Z,80.40
2019-03-22T07:17:17.400Z,79.30
2019-03-22T07:19:56.052Z,79.70
2019-03-22T07:22:29.377Z,79.90
2019-03-22T07:24:57.625Z,77.60
2019-03-22T07:27:30.438Z,76.40
2019-03-22T07:30:17.694Z,76.40
2019-03-22T07:32:41.388Z,74.10
2019-03-22T07:35:10.286Z,73.80
2019-03-22T07:37:41.493Z,73.50
2019-03-22T07:40:11.802Z,73.70
2019-03-22T07:42:40.874Z,74.30
2019-03-22T07:45:10.014Z,73.70
2019-03-22T07:47:40.141Z,74.00
2019-03-22T07:50:11.170Z,73.80
2019-03-22T07:52:39.901Z,73.70
2019-03-22T07:55:12.029Z,72.80
2019-03-22T07:57:44.347Z,72.70
2019-03-22T08:00:13.201Z,72.90
2019-03-22T08:02:41.843Z,73.20
2019-03-22T08:05:11.036Z,72.60
2019-03-22T08:07:39.813Z,72.40
2019-03-22T08:10:16.404Z,71.50
2019-03-22T08:12:45.329Z,71.80
2019-03-22T08:15:25.508Z,71.50
2019-03-22T08:17:54.008Z,71.80
2019-03-22T08:20:24.425Z,71.80
2019-03-22T08:22:53.716Z,70.90
2019-03-22T08:25:23.035Z,70.30
2019-03-22T08:27:54.295Z,69.30
2019-03-22T08:30:23.613Z,68.70
2019-03-22T08:32:53.546Z,69.20
2019-03-22T08:35:23.544Z,67.30
2019-03-22T08:37:53.110Z,67.20
2019-03-22T08:40:26.863Z,67.10
2019-03-22T08:42:56.161Z,65.70
2019-03-22T08:45:24.670Z,65.00
2019-03-22T08:47:53.293Z,64.70
2019-03-22T08:50:21.513Z,64.10
2019-03-22T08:52:49.871Z,63.70
2019-03-22T08:55:18.393Z,63.60
2019-03-22T08:57:46.758Z,63.60
2019-03-22T09:00:15.854Z,63.60
2019-03-22T09:02:44.167Z,63.00
2019-03-22T09:05:12.766Z,62.50
2019-03-22T09:07:41.068Z,61.80
2019-03-22T09:10:10.083Z,61.70
2019-03-22T09:12:38.287Z,61.70
2019-03-22T09:15:08.379Z,61.60
2019-03-22T09:17:36.706Z,61.80
2019-03-22T09:20:08.005Z,62.00
2019-03-22T09:22:36.274Z,61.90
2019-03-22T09:25:04.946Z,61.40
2019-03-22T09:27:36.273Z,60.40
2019-03-22T09:30:04.032Z,60.60
2019-03-22T09:32:32.175Z,60.80
2019-03-22T09:35:00.456Z,60.80
2019-03-22T09:37:28.572Z,60.60
2019-03-22T09:39:56.742Z,60.40
2019-03-22T09:42:24.974Z,60.10
2019-03-22T09:44:53.157Z,58.80
2019-03-22T09:47:21.349Z,59.30
2019-03-22T09:49:51.244Z,59.60
2019-03-22T09:52:19.552Z,59.90
2019-03-22T09:54:47.659Z,60.10
2019-03-22T09:57:15.796Z,60.00
2019-03-22T09:59:44.722Z,59.30
2019-03-22T10:02:12.850Z,59.60
2019-03-22T10:04:41.120Z,59.90
2019-03-22T10:07:09.337Z,59.90
2019-03-22T10:09:37.791Z,59.80
2019-03-22T10:12:06.015Z,59.00
2019-03-22T10:14:34.134Z,58.30
2019-03-22T10:17:02.377Z,58.00
2019-03-22T10:19:30.609Z,56.50
2019-03-22T10:21:59.242Z,56.60
2019-03-22T10:24:27.515Z,56.90
2019-03-22T10:26:55.766Z,56.30
2019-03-22T10:29:23.974Z,56.70
2019-03-22T10:31:52.157Z,56.10
2019-03-22T10:34:20.431Z,55.30
2019-03-22T10:36:48.608Z,55.70
2019-03-22T10:39:16.938Z,55.60
2019-03-22T10:41:45.183Z,55.90
2019-03-22T10:44:13.394Z,55.30
2019-03-22T10:46:41.570Z,55.30
2019-03-22T10:49:09.659Z,54.80
2019-03-22T10:51:37.921Z,53.50
2019-03-22T10:54:12.799Z,53.00
2019-03-22T10:56:38.399Z,53.00
2019-03-22T10:59:06.717Z,53.60
2019-03-22T11:01:48.279Z,54.30
2019-03-22T11:06:33.220Z,54.60
2019-03-22T11:09:01.504Z,54.30
2019-03-22T11:11:29.669Z,54.30
2019-03-22T11:13:57.964Z,53.90
2019-03-22T11:16:26.128Z,53.70
2019-03-22T11:18:54.405Z,53.60
2019-03-22T11:21:22.628Z,54.70
2019-03-22T11:23:50.983Z,54.00
2019-03-22T11:26:19.299Z,53.90
2019-03-22T11:28:48.369Z,53.70
2019-03-22T11:31:16.598Z,54.50
2019-03-22T11:33:44.760Z,54.70
2019-03-22T11:36:12.832Z,54.20
2019-03-22T11:38:40.954Z,54.30
2019-03-22T11:41:10.242Z,54.40
2019-03-22T11:43:38.536Z,54.20
2019-03-22T11:46:08.219Z,52.70
2019-03-22T11:48:36.438Z,50.90
2019-03-22T11:51:05.130Z,49.50
2019-03-22T11:53:33.378Z,49.40
2019-03-22T11:56:01.717Z,49.10
2019-03-22T11:58:30.146Z,49.30
2019-03-22T12:00:58.787Z,49.30
2019-03-22T12:03:27.845Z,48.60
2019-03-22T12:05:56.094Z,48.70
2019-03-22T12:08:25.548Z,48.90
2019-03-22T12:10:53.949Z,50.20
2019-03-22T12:13:22.174Z,50.00
2019-03-22T12:15:52.524Z,50.30
2019-03-22T12:18:20.909Z,51.30
2019-03-22T12:20:49.298Z,51.40
2019-03-22T12:23:19.796Z,51.30
2019-03-22T12:25:48.214Z,51.10
2019-03-22T12:28:16.570Z,50.90
2019-03-22T12:30:47.466Z,51.00
2019-03-22T12:33:15.782Z,50.90
2019-03-22T12:35:44.062Z,50.60
2019-03-22T12:38:12.442Z,50.80
2019-03-22T12:40:40.740Z,50.20
2019-03-22T12:43:09.023Z,51.70
2019-03-22T12:45:37.480Z,51.10
2019-03-22T12:48:05.626Z,51.10
2019-03-22T12:50:34.085Z,51.70
2019-03-22T12:53:04.635Z,52.90
2019-03-22T12:55:33.113Z,51.60
2019-03-22T12:58:01.881Z,50.60
2019-03-22T13:00:30.941Z,50.10
2019-03-22T13:02:59.823Z,48.70
2019-03-22T13:05:30.159Z,50.20
2019-03-22T13:08:00.595Z,51.40
2019-03-22T13:10:31.254Z,51.70
2019-03-22T13:12:59.723Z,52.00
2019-03-22T13:15:28.392Z,51.80
2019-03-22T13:17:57.774Z,51.10
2019-03-22T13:20:26.354Z,50.60
2019-03-22T13:22:54.857Z,49.00
2019-03-22T13:25:26.324Z,48.10
2019-03-22T13:27:55.507Z,47.40
2019-03-22T13:30:41.602Z,46.00
2019-03-22T13:33:10.477Z,46.40
2019-03-22T13:35:47.474Z,46.30
2019-03-22T13:38:16.360Z,42.80
2019-03-22T13:40:45.342Z,43.20
2019-03-22T13:43:14.632Z,43.50
2019-03-22T13:45:43.752Z,43.60
2019-03-22T13:48:17.455Z,44.20
2019-03-22T13:50:46.138Z,46.10
2019-03-22T13:53:15.268Z,46.00
2019-03-22T13:55:54.456Z,45.80
2019-03-22T13:58:20.512Z,46.00
2019-03-22T14:00:49.110Z,46.30
2019-03-22T14:03:18.324Z,45.30
2019-03-22T14:05:47.900Z,46.00
2019-03-22T14:08:18.342Z,45.30
2019-03-22T14:10:47.753Z,46.10
2019-03-22T14:13:16.815Z,46.90
2019-03-22T14:15:45.917Z,47.40
2019-03-22T14:18:19.314Z,48.40
2019-03-22T14:20:50.109Z,49.00
2019-03-22T14:23:18.975Z,49.50
2019-03-22T14:25:49.537Z,49.20
2019-03-22T14:28:18.977Z,49.30
2019-03-22T14:30:48.037Z,49.10
2019-03-22T14:33:16.867Z,48.80
2019-03-22T14:35:47.736Z,47.20
2019-03-22T14:38:18.725Z,46.70
2019-03-22T14:40:47.113Z,47.30
2019-03-22T14:43:18.335Z,46.10
2019-03-22T14:45:47.159Z,46.20
2019-03-22T14:48:15.702Z,45.90
2019-03-22T14:50:44.222Z,46.20
2019-03-22T14:53:12.678Z,44.80
2019-03-22T14:55:42.752Z,45.10
2019-03-22T14:58:11.161Z,45.10
2019-03-22T15:00:45.403Z,44.20
2019-03-22T15:05:45.425Z,44.50
2019-03-22T15:08:20.831Z,42.50
2019-03-22T15:10:46.421Z,43.00
2019-03-22T15:13:14.652Z,42.80
2019-03-22T15:16:05.352Z,43.10
2019-03-22T15:19:01.514Z,42.80
2019-03-22T15:21:58.448Z,43.20
2019-03-22T15:24:45.493Z,44.30
2019-03-22T15:27:39.131Z,44.60
2019-03-22T15:30:42.010Z,44.90
2019-03-22T15:33:38.770Z,44.20
2019-03-22T15:36:29.280Z,43.70
2019-03-22T15:42:02.463Z,43.20
2019-03-22T15:44:30.860Z,42.70
2019-03-22T15:47:01.460Z,43.90
2019-03-22T15:49:29.796Z,44.50
2019-03-22T15:51:58.177Z,44.50
2019-03-22T15:54:26.727Z,46.10
2019-03-22T15:56:55.130Z,45.20
2019-03-22T15:59:23.427Z,44.30
2019-03-22T16:01:51.535Z,44.40
2019-03-22T16:04:20.173Z,43.90
2019-03-22T16:06:48.400Z,44.00
2019-03-22T16:09:16.980Z,43.30
2019-03-22T16:11:45.269Z,43.30
2019-03-22T16:14:13.638Z,44.20
2019-03-22T16:16:41.998Z,44.40
2019-03-22T16:19:10.357Z,44.40
2019-03-22T16:21:38.934Z,45.30
2019-03-22T16:24:07.096Z,44.10
2019-03-22T16:26:35.345Z,45.10
2019-03-22T16:29:03.601Z,45.00
2019-03-22T16:31:32.010Z,45.70
2019-03-22T16:34:00.305Z,45.60
2019-03-22T16:36:28.650Z,45.40
2019-03-22T16:38:56.989Z,45.00
2019-03-22T16:41:25.181Z,45.50
2019-03-22T16:43:53.449Z,46.40
2019-03-22T16:46:22.718Z,45.90
2019-03-22T16:48:54.886Z,45.90
2019-03-22T16:51:23.157Z,45.70
2019-03-22T16:53:53.782Z,45.90
2019-03-22T16:56:22.076Z,45.10
2019-03-22T16:58:50.415Z,44.70
2019-03-22T17:01:18.792Z,43.90
2019-03-22T17:03:47.166Z,43.80
2019-03-22T17:06:15.386Z,43.10
2019-03-22T17:08:46.218Z,42.90
2019-03-22T17:11:15.199Z,43.00
2019-03-22T17:13:43.644Z,43.50
2019-03-22T17:16:12.042Z,43.70
2019-03-22T17:18:40.995Z,43.90
2019-03-22T17:21:09.394Z,44.20
2019-03-22T17:23:37.701Z,44.80
2019-03-22T17:26:06.040Z,45.60
2019-03-22T17:28:34.388Z,46.80
2019-03-22T17:31:02.763Z,46.50
2019-03-22T17:33:30.918Z,47.50
2019-03-22T17:35:59.223Z,47.30
2019-03-22T17:38:27.632Z,47.30
2019-03-22T17:40:55.897Z,47.20
2019-03-22T17:43:24.226Z,47.20
2019-03-22T17:45:52.670Z,47.60
2019-03-22T17:48:20.998Z,49.00
2019-03-22T17:50:49.202Z,48.20
2019-03-22T17:53:18.063Z,48.80
2019-03-22T17:55:46.458Z,49.60
2019-03-22T17:58:14.819Z,48.90
2019-03-22T18:00:43.336Z,48.10
2019-03-22T18:03:11.580Z,48.80
2019-03-22T18:05:39.855Z,48.70
2019-03-22T18:08:08.051Z,49.30
2019-03-22T18:10:36.370Z,48.70
2019-03-22T18:13:05.910Z,48.40
2019-03-22T18:15:34.254Z,50.10
2019-03-22T18:18:02.518Z,52.20
2019-03-22T18:20:30.870Z,52.00
2019-03-22T18:22:59.171Z,53.90
2019-03-22T18:25:27.428Z,54.40
2019-03-22T18:27:55.812Z,54.40
2019-03-22T18:30:25.446Z,53.50
2019-03-22T18:32:54.126Z,54.20
2019-03-22T18:35:22.363Z,55.70
2019-03-22T18:37:50.843Z,56.70
2019-03-22T18:40:19.100Z,57.10
2019-03-22T18:42:47.391Z,56.60
2019-03-22T18:45:15.781Z,57.30
2019-03-22T18:47:44.126Z,58.30
2019-03-22T18:50:12.667Z,58.50
2019-03-22T18:52:41.129Z,58.30
2019-03-22T18:55:09.834Z,58.20
2019-03-22T18:57:38.368Z,58.10
2019-03-22T19:00:09.867Z,58.20
2019-03-22T19:02:38.077Z,58.70
2019-03-22T19:05:06.709Z,58.80
2019-03-22T19:07:35.088Z,58.50
2019-03-22T19:10:05.424Z,57.90
2019-03-22T19:12:35.487Z,58.00
2019-03-22T19:15:05.137Z,56.40
2019-03-22T19:17:33.412Z,57.30
2019-03-22T19:20:01.538Z,57.70
2019-03-22T19:22:29.894Z,57.50
2019-03-22T19:24:58.359Z,57.40
2019-03-22T19:27:29.374Z,55.80
2019-03-22T19:29:57.591Z,56.40
2019-03-22T19:32:25.887Z,56.80
2019-03-22T19:34:54.729Z,56.20
2019-03-22T19:37:23.019Z,56.50
2019-03-22T19:39:51.274Z,57.00
2019-03-22T19:42:19.596Z,58.30
2019-03-22T19:44:47.935Z,58.10
2019-03-22T19:47:16.430Z,58.30
2019-03-22T19:49:45.774Z,58.50
2019-03-22T19:52:14.117Z,58.70
2019-03-22T19:54:44.320Z,59.50
2019-03-22T19:57:12.705Z,58.80
2019-03-22T19:59:41.087Z,60.10
2019-03-22T20:02:10.821Z,59.90
2019-03-22T20:04:39.194Z,60.10
2019-03-22T20:07:07.573Z,60.00
2019-03-22T20:09:35.909Z,60.10
2019-03-22T20:12:04.281Z,60.10
2019-03-22T20:14:32.582Z,60.10
2019-03-22T20:17:06.376Z,60.40
2019-03-22T20:19:34.642Z,60.70
2019-03-22T20:22:03.066Z,60.90
2019-03-22T20:24:31.573Z,61.40
2019-03-22T20:27:00.073Z,61.30
2019-03-22T20:29:30.451Z,61.30
2019-03-22T20:31:59.854Z,61.00
2019-03-22T20:34:28.048Z,61.00
2019-03-22T20:36:56.322Z,61.10
2019-03-22T20:39:24.479Z,61.20
2019-03-22T20:41:52.838Z,61.00
2019-03-22T20:44:21.154Z,59.70
2019-03-22T20:46:49.548Z,59.60
2019-03-22T20:49:17.798Z,58.30
2019-03-22T20:51:46.197Z,58.40
2019-03-22T20:54:14.548Z,58.30
2019-03-22T20:56:42.928Z,57.60
2019-03-22T20:59:11.287Z,57.30
2019-03-22T21:01:39.614Z,55.90
2019-03-22T21:04:07.941Z,55.70
2019-03-22T21:06:36.404Z,55.90
2019-03-22T21:09:06.369Z,55.30
2019-03-22T21:11:34.624Z,54.60
2019-03-22T21:14:02.886Z,54.90
2019-03-22T21:16:31.292Z,55.70
2019-03-22T21:18:59.802Z,54.60
2019-03-22T21:21:35.941Z,53.90
2019-03-22T21:23:58.237Z,54.00
2019-03-22T21:26:26.629Z,54.00
2019-03-22T21:28:54.946Z,53.20
2019-03-22T21:31:23.294Z,53.10
2019-03-22T21:33:51.744Z,52.40
2019-03-22T21:36:20.026Z,51.60
2019-03-22T21:38:48.406Z,51.50
2019-03-22T21:41:16.616Z,51.50
2019-03-22T21:43:44.893Z,52.10
2019-03-22T21:46:13.276Z,53.00
2019-03-22T21:48:42.062Z,52.60
2019-03-22T21:51:10.259Z,54.90
2019-03-22T21:53:38.698Z,54.90
2019-03-22T21:56:07.201Z,52.70
2019-03-22T21:58:37.711Z,53.20
2019-03-22T22:01:05.994Z,53.40
2019-03-22T22:03:34.321Z,52.00
2019-03-22T22:06:02.777Z,51.40
2019-03-22T22:08:31.086Z,52.40
2019-03-22T22:11:00.170Z,51.50
2019-03-22T22:13:29.827Z,50.40
2019-03-22T22:15:58.093Z,50.10
2019-03-22T22:18:26.438Z,51.70
2019-03-22T22:20:54.700Z,51.70
2019-03-22T22:23:23.099Z,50.40
2019-03-22T22:25:51.573Z,50.50
2019-03-22T22:28:19.817Z,49.70
2019-03-22T22:30:48.070Z,49.60
2019-03-22T22:33:16.293Z,49.60
2019-03-22T22:35:47.043Z,49.20
2019-03-22T22:38:15.426Z,48.40
2019-03-22T22:40:43.821Z,48.60
2019-03-22T22:43:14.615Z,48.90
2019-03-22T22:45:42.983Z,49.20
2019-03-22T22:48:11.591Z,48.70
2019-03-22T22:50:42.163Z,48.10
2019-03-22T22:53:10.373Z,48.80
2019-03-22T22:55:38.796Z,49.00
2019-03-22T22:58:07.057Z,48.20
2019-03-22T23:00:35.422Z,48.60
2019-03-22T23:03:03.811Z,47.90
2019-03-22T23:05:35.060Z,47.90
2019-03-22T23:08:03.210Z,48.60
2019-03-22T23:10:31.619Z,49.40
2019-03-22T23:12:59.917Z,49.70
2019-03-22T23:15:28.641Z,50.50
2019-03-22T23:17:57.017Z,50.10
2019-03-22T23:20:25.419Z,49.90
2019-03-22T23:22:53.755Z,49.70
2019-03-22T23:25:22.017Z,49.50
2019-03-22T23:27:50.258Z,49.20
2019-03-22T23:30:18.530Z,49.10
2019-03-22T23:32:46.770Z,49.90
2019-03-22T23:35:15.237Z,50.50
2019-03-22T23:37:43.444Z,51.60
2019-03-22T23:40:12.309Z,52.30
2019-03-22T23:42:42.158Z,54.00
2019-03-22T23:45:11.081Z,54.80
2019-03-22T23:47:39.352Z,56.00
2019-03-22T23:50:08.111Z,57.00
2019-03-22T23:52:36.297Z,57.30
2019-03-22T23:55:05.549Z,57.30
2019-03-22T23:57:33.777Z,59.00
